Fingal, North Dakota
Current Conditions -  °F | °C
As of 9:55 PM on Saturday 20 Dec 2014 (Local Time) from KBAC Reporting Station
Haze Haze  
Wind Chill: 15°   Ceiling: 400
Heat Index: 27°   Visibility: 5mi
Dew Point: 27°   Wind: 14mph
Humidity: 100%   Direction: 200°SSW
Pressure: 29.85"   Gusts: NA
Location:  46.76°N, 97.79°W
Report Text: KBAC 210355Z AUTO 20012KT 5SM BR OVC004 M03/M03 A2985 RMK AO2
Loading
Personal Weather Stations






























Interactive Weather Map New forecast layout! Learn more

10-Day Weather Forecast

Advertisements
Track Severe Weather on mobile